LRBC/BCM METAR and TAF weather

Enter ICAO airport designator
Station Type Date Time Source
LRBC METAR 2019/04/22 18:00 UTC NOAA

LRBC 221800Z VRB04KT CAVOK 10/03 Q1025


Station Type Date Time Source
LRBC Decoded METAR 2019/04/22 18:00 UTC NOAA

Bacau, Romania (LRBC) 46-35N 026-58E 190M
Apr 22, 2019 - 02:00 PM EDT / 2019.04.22 1800 UTC
Wind: Variable at 5 MPH (4 KT):0
Visibility: greater than 7 mile(s):0
Temperature: 50 F (10 C)
Dew Point: 37 F (3 C)
Relative Humidity: 61%
Pressure (altimeter): 30.27 in. Hg (1025 hPa)
ob: LRBC 221800Z VRB04KT CAVOK 10/03 Q1025
cycle: 18

Station Type Date Time Source
LRBC TAF 2010/08/31 20:30 UTC NOAA

TAF LRBC 312030Z 3121/0203 CNL

Example: see airport list